Plano's Hourly Summary for Thursday, May 10, 2018
Hour Temp
(f)
RH
(%)
Solar Rad.
(MJ/m2)
Rainfall
(in)
Wind
(mph)
5/10/2018 12:00 AM 76 46 0 0 3.5
5/10/2018 1:00 AM 75 44 0 0 4.33
5/10/2018 2:00 AM 74 45 0 0 4.39
5/10/2018 3:00 AM 73 45 0 0 4.88
5/10/2018 4:00 AM 71 50 0 0 3.94
5/10/2018 5:00 AM 70 49 0 0 4.07
5/10/2018 6:00 AM 69 51 0 0 3.69
5/10/2018 7:00 AM 67 59 0.01 0 2.9
5/10/2018 8:00 AM 66 70 0.32 0 4.29
5/10/2018 9:00 AM 69 68 1.09 0 5.38
5/10/2018 10:00 AM 72 58 1.34 0 4.12
5/10/2018 11:00 AM 76 50 1.79 0 3.35
5/10/2018 12:00 PM 79 45 2.88 0 3.58
5/10/2018 1:00 PM 81 39 3.18 0 5.16
5/10/2018 2:00 PM 83 38 3.24 0 5.38
5/10/2018 3:00 PM 83 38 3.14 0 5.45
5/10/2018 4:00 PM 84 39 2.65 0 5.61
5/10/2018 5:00 PM 84 37 2.32 0 6.18
5/10/2018 6:00 PM 84 38 1.66 0 6.23
5/10/2018 7:00 PM 83 41 0.95 0 6.22
5/10/2018 8:00 PM 81 43 0.27 0 5.05
5/10/2018 9:00 PM 80 43 0.01 0 4.95
5/10/2018 10:00 PM 78 46 0 0 3.82
5/10/2018 11:00 PM 77 50 0 0 4.26
Data Summary 76 47 24.85 0.00 4.61